createdAt,value
2023-03-25T00:01:18.070Z,61.83
2023-03-25T00:03:51.270Z,61.06
2023-03-25T00:06:19.866Z,61.17
2023-03-25T00:08:48.497Z,60.81
2023-03-25T00:11:16.727Z,61.25
2023-03-25T00:13:44.938Z,61.16
2023-03-25T00:16:13.444Z,60.99
2023-03-25T00:18:41.662Z,61.61
2023-03-25T00:21:12.475Z,60.28
2023-03-25T00:23:41.673Z,60.33
2023-03-25T00:26:09.876Z,60.43
2023-03-25T00:28:39.217Z,58.78
2023-03-25T00:31:15.239Z,60.62
2023-03-25T00:33:43.491Z,60.94
2023-03-25T00:36:15.293Z,59.51
2023-03-25T00:38:43.938Z,59.68
2023-03-25T00:41:30.888Z,59.94
2023-03-25T00:44:00.604Z,59.96
2023-03-25T00:46:32.226Z,60.55
2023-03-25T00:49:01.378Z,59.97
2023-03-25T00:51:31.590Z,59.54
2023-03-25T00:54:03.611Z,60.46
2023-03-25T00:56:32.372Z,60.79
2023-03-25T00:59:00.725Z,60.77
2023-03-25T01:01:29.606Z,60.38
2023-03-25T01:04:00.688Z,60.91
2023-03-25T01:06:32.774Z,60.69
2023-03-25T01:09:03.324Z,61.29
2023-03-25T01:11:35.090Z,61.21
2023-03-25T01:14:06.271Z,62.12
2023-03-25T01:16:35.003Z,62.14
2023-03-25T01:19:03.592Z,63.81
2023-03-25T01:21:35.405Z,65.70
2023-03-25T01:24:04.893Z,66.50
2023-03-25T01:26:33.090Z,67.72
2023-03-25T01:29:01.223Z,68.02
2023-03-25T01:31:31.938Z,68.63
2023-03-25T01:34:00.530Z,68.30
2023-03-25T01:36:31.552Z,68.93
2023-03-25T01:39:00.478Z,67.46
2023-03-25T01:41:42.272Z,70.22
2023-03-25T01:44:15.213Z,69.53
2023-03-25T01:46:45.707Z,68.38
2023-03-25T01:49:27.151Z,67.74
2023-03-25T01:52:00.543Z,68.94
2023-03-25T01:54:29.336Z,69.30
2023-03-25T01:56:58.198Z,70.49
2023-03-25T01:59:28.545Z,72.48
2023-03-25T02:01:58.592Z,73.53
2023-03-25T02:04:44.566Z,75.31
2023-03-25T02:07:13.252Z,77.15
2023-03-25T02:09:42.046Z,80.99
2023-03-25T02:12:10.522Z,81.89
2023-03-25T02:14:39.462Z,81.89
2023-03-25T02:17:20.367Z,82.70
2023-03-25T02:20:08.585Z,85.09
2023-03-25T02:22:55.081Z,86.49
2023-03-25T02:26:05.644Z,85.62
2023-03-25T02:28:47.670Z,84.37
2023-03-25T02:31:55.316Z,84.98
2023-03-25T02:34:57.197Z,85.97
2023-03-25T02:37:49.313Z,85.84
2023-03-25T02:40:23.849Z,85.52
2023-03-25T02:43:05.830Z,83.92
2023-03-25T02:45:43.778Z,84.48
2023-03-25T02:48:20.033Z,83.33
2023-03-25T02:50:53.138Z,82.58
2023-03-25T02:53:29.060Z,84.00
2023-03-25T02:56:00.898Z,82.17
2023-03-25T02:58:31.025Z,83.30
2023-03-25T03:00:59.727Z,83.87
2023-03-25T03:03:28.840Z,84.65
2023-03-25T03:06:00.609Z,85.22
2023-03-25T03:08:54.641Z,84.44
2023-03-25T03:11:34.286Z,86.04
2023-03-25T03:14:19.215Z,85.99
2023-03-25T03:17:18.698Z,88.38
2023-03-25T03:20:19.487Z,89.90
2023-03-25T03:22:53.054Z,93.40
2023-03-25T03:25:35.389Z,94.70
2023-03-25T03:28:16.748Z,93.88
2023-03-25T03:30:46.774Z,95.25
2023-03-25T03:33:18.234Z,94.33
2023-03-25T03:35:51.993Z,95.29
2023-03-25T03:38:25.287Z,94.74
2023-03-25T03:41:05.736Z,95.09
2023-03-25T03:43:41.556Z,96.10
2023-03-25T03:46:16.475Z,93.02
2023-03-25T03:48:56.337Z,92.78
2023-03-25T03:51:32.361Z,91.68
2023-03-25T03:54:01.736Z,92.79
2023-03-25T03:56:37.510Z,91.04
2023-03-25T03:59:11.906Z,95.25
2023-03-25T04:01:49.037Z,92.68
2023-03-25T04:04:24.097Z,92.80
2023-03-25T04:07:04.711Z,93.29
2023-03-25T04:09:57.775Z,91.90
2023-03-25T04:12:34.678Z,92.76
2023-03-25T04:15:04.115Z,90.35
2023-03-25T04:17:35.427Z,92.92
2023-03-25T04:20:09.212Z,91.26
2023-03-25T04:22:38.099Z,90.15
2023-03-25T04:25:07.367Z,89.18
2023-03-25T04:27:38.054Z,90.82
2023-03-25T04:30:08.168Z,90.46
2023-03-25T04:32:36.354Z,93.15
2023-03-25T04:35:04.760Z,92.79
2023-03-25T04:37:37.379Z,92.68
2023-03-25T04:40:09.500Z,92.01
2023-03-25T04:42:38.077Z,89.21
2023-03-25T04:45:06.505Z,89.18
2023-03-25T04:47:34.809Z,86.45
2023-03-25T04:50:03.429Z,86.68
2023-03-25T04:52:31.930Z,86.02
2023-03-25T04:55:00.278Z,87.22
2023-03-25T04:57:28.692Z,87.36
2023-03-25T04:59:56.900Z,85.90
2023-03-25T05:02:25.114Z,85.72
2023-03-25T05:04:54.626Z,86.63
2023-03-25T05:07:22.718Z,86.29
2023-03-25T05:09:50.794Z,85.43
2023-03-25T05:12:19.184Z,84.30
2023-03-25T05:14:47.754Z,83.08
2023-03-25T05:17:15.964Z,81.96
2023-03-25T05:19:45.669Z,81.76
2023-03-25T05:22:14.773Z,81.58
2023-03-25T05:24:45.395Z,81.73
2023-03-25T05:27:13.931Z,81.94
2023-03-25T05:29:44.807Z,82.51
2023-03-25T05:32:17.999Z,80.91
2023-03-25T05:34:48.976Z,80.09
2023-03-25T05:37:17.988Z,80.39
2023-03-25T05:39:46.474Z,79.32
2023-03-25T05:42:15.322Z,77.93
2023-03-25T05:44:52.072Z,80.14
2023-03-25T05:47:22.239Z,80.77
2023-03-25T05:49:52.153Z,79.91
2023-03-25T05:52:24.788Z,80.53
2023-03-25T05:54:53.423Z,80.23
2023-03-25T05:57:21.651Z,80.49
2023-03-25T05:59:49.753Z,80.76
2023-03-25T06:02:18.818Z,81.23
2023-03-25T06:04:50.762Z,80.50
2023-03-25T06:07:22.535Z,79.60
2023-03-25T06:09:54.445Z,79.81
2023-03-25T06:12:23.926Z,79.89
2023-03-25T06:14:54.429Z,80.38
2023-03-25T06:17:23.120Z,81.37
2023-03-25T06:19:52.264Z,81.98
2023-03-25T06:22:22.458Z,81.40
2023-03-25T06:24:52.670Z,80.58
2023-03-25T06:27:22.505Z,80.60
2023-03-25T06:29:51.103Z,80.40
2023-03-25T06:32:19.289Z,80.23
2023-03-25T06:34:47.720Z,80.30
2023-03-25T06:37:16.289Z,79.24
2023-03-25T06:39:50.093Z,79.72
2023-03-25T06:42:18.925Z,79.05
2023-03-25T06:44:47.622Z,77.97
2023-03-25T06:47:16.695Z,78.46
2023-03-25T06:49:45.783Z,78.60
2023-03-25T06:52:14.526Z,79.71
2023-03-25T06:54:42.713Z,80.61
2023-03-25T06:57:11.238Z,79.43
2023-03-25T06:59:39.563Z,76.43
2023-03-25T07:02:07.852Z,74.74
2023-03-25T07:04:36.715Z,76.14
2023-03-25T07:07:04.757Z,74.09
2023-03-25T07:09:32.977Z,73.13
2023-03-25T07:12:01.430Z,72.13
2023-03-25T07:14:29.632Z,72.01
2023-03-25T07:16:57.690Z,73.12
2023-03-25T07:19:26.279Z,72.62
2023-03-25T07:21:54.445Z,72.37
2023-03-25T07:24:22.479Z,70.18
2023-03-25T07:26:50.959Z,72.38
2023-03-25T07:29:20.967Z,72.72
2023-03-25T07:31:49.115Z,70.50
2023-03-25T07:34:17.642Z,71.95
2023-03-25T07:36:45.869Z,70.37
2023-03-25T07:39:13.978Z,68.61
2023-03-25T07:41:43.318Z,68.05
2023-03-25T07:44:12.611Z,65.42
2023-03-25T07:46:41.085Z,69.41
2023-03-25T07:49:09.617Z,67.24
2023-03-25T07:51:37.687Z,65.71
2023-03-25T07:54:06.497Z,64.71
2023-03-25T07:56:35.625Z,64.75
2023-03-25T07:59:04.639Z,64.51
2023-03-25T08:01:32.790Z,62.08
2023-03-25T08:04:01.286Z,62.26
2023-03-25T08:06:29.438Z,64.23
2023-03-25T08:08:57.617Z,63.21
2023-03-25T08:11:25.982Z,63.42
2023-03-25T08:13:54.526Z,62.22
2023-03-25T08:16:23.766Z,63.95
2023-03-25T08:18:53.284Z,63.67
2023-03-25T08:21:25.326Z,62.73
2023-03-25T08:24:02.605Z,60.43
2023-03-25T08:26:32.063Z,57.17
2023-03-25T08:29:03.034Z,55.32
2023-03-25T08:31:32.772Z,54.39
2023-03-25T08:34:02.581Z,53.37
2023-03-25T08:36:30.779Z,52.49
2023-03-25T08:38:58.935Z,52.97
2023-03-25T08:41:27.452Z,50.46
2023-03-25T08:43:55.600Z,52.59
2023-03-25T08:46:23.854Z,49.66
2023-03-25T08:48:53.840Z,50.83
2023-03-25T08:51:22.105Z,51.86
2023-03-25T08:53:51.595Z,52.11
2023-03-25T08:56:20.048Z,49.27
2023-03-25T08:58:48.304Z,49.46
2023-03-25T09:01:16.492Z,47.74
2023-03-25T09:03:45.136Z,48.50
2023-03-25T09:06:13.299Z,47.49
2023-03-25T09:08:41.493Z,48.44
2023-03-25T09:11:10.124Z,47.37
2023-03-25T09:13:38.484Z,47.65
2023-03-25T09:16:07.289Z,47.88
2023-03-25T09:18:37.130Z,45.86
2023-03-25T09:21:05.393Z,46.02
2023-03-25T09:23:33.674Z,47.57
2023-03-25T09:26:04.056Z,46.26
2023-03-25T09:28:32.233Z,46.18
2023-03-25T09:31:01.008Z,45.77
2023-03-25T09:33:29.572Z,48.58
2023-03-25T09:35:57.718Z,44.64
2023-03-25T09:38:27.580Z,44.93
2023-03-25T09:40:56.405Z,44.69
2023-03-25T09:43:47.823Z,43.69
2023-03-25T09:46:16.309Z,44.77
2023-03-25T09:48:47.323Z,43.83
2023-03-25T09:51:21.706Z,42.34
2023-03-25T09:54:19.155Z,40.63
2023-03-25T09:56:48.133Z,38.87
2023-03-25T09:59:21.101Z,42.02
2023-03-25T10:02:00.286Z,43.56
2023-03-25T10:04:49.185Z,44.60
2023-03-25T10:07:23.205Z,45.13
2023-03-25T10:10:16.084Z,45.06
2023-03-25T10:12:48.106Z,43.21
2023-03-25T10:15:54.518Z,39.20
2023-03-25T10:18:38.261Z,39.03
2023-03-25T10:21:16.705Z,38.86
2023-03-25T10:24:04.154Z,37.80
2023-03-25T10:27:11.497Z,36.24
2023-03-25T10:29:44.640Z,34.59
2023-03-25T10:32:28.108Z,33.82
2023-03-25T10:34:57.941Z,32.42
2023-03-25T10:37:30.906Z,30.42
2023-03-25T10:40:33.864Z,32.46
2023-03-25T10:43:23.792Z,32.85
2023-03-25T10:45:58.727Z,37.02
2023-03-25T10:48:31.927Z,36.65
2023-03-25T10:51:08.900Z,35.31
2023-03-25T10:53:39.605Z,36.76
2023-03-25T10:56:28.607Z,36.74
2023-03-25T10:58:58.264Z,36.46
2023-03-25T11:01:39.575Z,36.57
2023-03-25T11:04:10.991Z,38.11
2023-03-25T11:06:41.092Z,40.55
2023-03-25T11:09:30.815Z,40.16
2023-03-25T11:12:01.556Z,40.01
2023-03-25T11:14:32.585Z,40.44
2023-03-25T11:17:04.247Z,38.92
2023-03-25T11:19:48.265Z,36.38
2023-03-25T11:22:20.251Z,38.65
2023-03-25T11:24:51.465Z,40.39
2023-03-25T11:27:23.299Z,39.87
2023-03-25T11:30:05.486Z,38.94
2023-03-25T11:32:37.498Z,39.16
2023-03-25T11:35:28.249Z,37.53
2023-03-25T11:38:01.764Z,40.50
2023-03-25T11:40:30.830Z,39.96
2023-03-25T11:43:00.721Z,41.15
2023-03-25T11:45:45.783Z,40.28
2023-03-25T11:48:31.514Z,41.90
2023-03-25T11:51:02.793Z,43.21
2023-03-25T11:53:32.812Z,41.57
2023-03-25T11:56:07.158Z,41.38
2023-03-25T11:58:38.211Z,42.46
2023-03-25T12:01:08.724Z,42.65
2023-03-25T12:03:39.789Z,42.87
2023-03-25T12:06:17.469Z,42.94
2023-03-25T12:08:53.408Z,43.64
2023-03-25T12:11:42.494Z,42.76
2023-03-25T12:14:23.255Z,43.75
2023-03-25T12:17:00.840Z,43.93
2023-03-25T12:19:43.181Z,43.01
2023-03-25T12:22:47.158Z,45.00
2023-03-25T12:25:27.435Z,43.13
2023-03-25T12:28:34.401Z,43.79
2023-03-25T12:31:23.078Z,42.86
2023-03-25T12:33:51.198Z,45.16
2023-03-25T12:36:53.775Z,44.17
2023-03-25T12:39:42.826Z,42.12
2023-03-25T12:42:35.294Z,42.20
2023-03-25T12:45:23.951Z,43.63
2023-03-25T12:48:19.251Z,41.79
2023-03-25T12:51:08.749Z,41.97
2023-03-25T12:53:48.263Z,42.20
2023-03-25T12:56:45.546Z,42.46
2023-03-25T12:59:26.879Z,42.03
2023-03-25T13:02:39.482Z,41.52
2023-03-25T13:05:23.637Z,41.05
2023-03-25T13:07:57.023Z,42.31
2023-03-25T13:10:29.407Z,42.91
2023-03-25T13:13:02.757Z,42.36
2023-03-25T13:15:41.364Z,42.66
2023-03-25T13:18:28.016Z,41.90
2023-03-25T13:21:15.893Z,41.57
2023-03-25T13:23:46.005Z,41.06
2023-03-25T13:26:20.510Z,41.03
2023-03-25T13:28:58.668Z,41.05
2023-03-25T13:31:29.443Z,40.86
2023-03-25T13:34:02.496Z,40.46
2023-03-25T13:36:41.733Z,39.80
2023-03-25T13:39:27.787Z,40.19
2023-03-25T13:42:03.681Z,39.56
2023-03-25T13:44:39.772Z,39.55
2023-03-25T13:47:33.077Z,38.46
2023-03-25T13:50:05.034Z,39.60
2023-03-25T13:52:37.974Z,40.03
2023-03-25T13:55:22.415Z,40.01
2023-03-25T13:58:23.442Z,39.27
2023-03-25T14:01:29.179Z,40.66
2023-03-25T14:04:05.760Z,40.79
2023-03-25T14:06:40.428Z,41.55
2023-03-25T14:09:36.891Z,41.05
2023-03-25T14:12:16.907Z,40.65
2023-03-25T14:14:52.580Z,40.49
2023-03-25T14:17:23.061Z,41.50
2023-03-25T14:19:55.593Z,41.36
2023-03-25T14:22:26.528Z,41.94
2023-03-25T14:24:56.158Z,41.90
2023-03-25T14:27:30.286Z,42.68
2023-03-25T14:30:06.096Z,41.96
2023-03-25T14:32:42.049Z,42.84
2023-03-25T14:35:29.171Z,41.38
2023-03-25T14:38:12.897Z,42.14
2023-03-25T14:41:01.412Z,41.34
2023-03-25T14:43:46.573Z,40.61
2023-03-25T14:46:18.798Z,39.19
2023-03-25T14:49:13.888Z,40.26
2023-03-25T14:51:45.080Z,39.56
2023-03-25T14:54:31.260Z,37.51
2023-03-25T14:57:09.562Z,37.37
2023-03-25T14:59:49.702Z,36.76
2023-03-25T15:02:26.791Z,37.02
2023-03-25T15:05:10.450Z,36.45
2023-03-25T15:07:45.018Z,37.48
2023-03-25T15:10:40.627Z,37.08
2023-03-25T15:13:26.709Z,38.23
2023-03-25T15:16:02.670Z,39.26
2023-03-25T15:18:37.477Z,38.92
2023-03-25T15:21:08.606Z,38.89
2023-03-25T15:23:59.547Z,39.23
2023-03-25T15:26:28.772Z,39.57
2023-03-25T15:29:13.485Z,38.96
2023-03-25T15:31:56.297Z,39.93
2023-03-25T15:34:32.800Z,39.20
2023-03-25T15:37:04.559Z,40.00
2023-03-25T15:39:54.419Z,41.56
2023-03-25T15:42:44.635Z,40.13
2023-03-25T15:45:23.766Z,40.79
2023-03-25T15:48:20.034Z,40.57
2023-03-25T15:51:13.182Z,40.01
2023-03-25T15:53:50.746Z,40.89
2023-03-25T15:56:25.061Z,39.45
2023-03-25T15:59:38.846Z,40.28
2023-03-25T16:02:34.681Z,39.58
2023-03-25T16:05:04.090Z,39.14
2023-03-25T16:07:34.648Z,38.92
2023-03-25T16:10:21.030Z,37.99
2023-03-25T16:12:50.951Z,38.10
2023-03-25T16:15:30.725Z,37.99
2023-03-25T16:17:59.433Z,38.40
2023-03-25T16:20:32.142Z,39.62
2023-03-25T16:23:01.200Z,38.61
2023-03-25T16:25:41.780Z,38.78
2023-03-25T16:28:33.680Z,39.07
2023-03-25T16:31:03.167Z,39.36
2023-03-25T16:33:37.830Z,39.63
2023-03-25T16:36:10.291Z,40.41
2023-03-25T16:38:38.424Z,40.27
2023-03-25T16:41:16.724Z,39.68
2023-03-25T16:43:45.119Z,40.23
2023-03-25T16:46:16.199Z,39.90
2023-03-25T16:48:54.624Z,40.11
2023-03-25T16:51:29.294Z,41.26
2023-03-25T16:54:01.272Z,40.55
2023-03-25T16:56:33.174Z,40.70
2023-03-25T16:59:08.388Z,41.00
2023-03-25T17:01:39.868Z,41.77
2023-03-25T17:04:11.787Z,42.71
2023-03-25T17:06:41.356Z,44.13
2023-03-25T17:09:23.403Z,45.23
2023-03-25T17:11:57.593Z,45.25
2023-03-25T17:14:31.035Z,46.07
2023-03-25T17:17:07.760Z,46.91
2023-03-25T17:19:46.702Z,45.75
2023-03-25T17:22:26.641Z,46.20
2023-03-25T17:24:57.697Z,46.74
2023-03-25T17:27:39.219Z,47.44
2023-03-25T17:30:33.965Z,47.24
2023-03-25T17:33:13.214Z,47.75
2023-03-25T17:35:43.247Z,47.51
2023-03-25T17:38:20.064Z,48.02
2023-03-25T17:40:48.005Z,47.05
2023-03-25T17:43:19.880Z,47.17
2023-03-25T17:45:48.214Z,46.37
2023-03-25T17:48:19.308Z,46.35
2023-03-25T17:50:55.284Z,47.79
2023-03-25T17:53:24.062Z,47.56
2023-03-25T17:55:52.584Z,48.60
2023-03-25T17:58:22.731Z,48.76
2023-03-25T18:00:52.588Z,48.08
2023-03-25T18:03:23.222Z,48.21
2023-03-25T18:05:54.327Z,48.79
2023-03-25T18:08:24.286Z,49.11
2023-03-25T18:10:53.682Z,48.46
2023-03-25T18:13:24.240Z,49.48
2023-03-25T18:15:53.466Z,49.33
2023-03-25T18:18:27.123Z,48.54
2023-03-25T18:21:03.912Z,48.56
2023-03-25T18:23:31.922Z,50.17
2023-03-25T18:26:00.614Z,50.58
2023-03-25T18:28:28.688Z,49.39
2023-03-25T18:30:59.769Z,49.04
2023-03-25T18:33:29.080Z,49.97
2023-03-25T18:35:59.711Z,49.79
2023-03-25T18:38:28.597Z,49.96
2023-03-25T18:40:57.565Z,50.22
2023-03-25T18:43:25.948Z,50.49
2023-03-25T18:45:54.600Z,49.39
2023-03-25T18:48:22.879Z,50.92
2023-03-25T18:50:56.460Z,50.98
2023-03-25T18:53:27.687Z,51.16
2023-03-25T18:56:00.282Z,52.45
2023-03-25T18:58:33.974Z,53.38
2023-03-25T19:01:03.456Z,55.06
2023-03-25T19:03:39.232Z,55.74
2023-03-25T19:06:13.037Z,57.11
2023-03-25T19:08:46.513Z,57.86
2023-03-25T19:11:21.790Z,57.74
2023-03-25T19:13:51.754Z,59.02
2023-03-25T19:16:20.650Z,58.73
2023-03-25T19:18:49.273Z,60.10
2023-03-25T19:21:19.476Z,59.60
2023-03-25T19:23:48.232Z,59.00
2023-03-25T19:26:16.441Z,59.52
2023-03-25T19:28:44.975Z,59.45
2023-03-25T19:31:18.742Z,58.85
2023-03-25T19:33:47.372Z,58.91
2023-03-25T19:36:16.411Z,59.58
2023-03-25T19:38:45.139Z,58.73
2023-03-25T19:41:16.443Z,59.08
2023-03-25T19:43:45.097Z,59.22
2023-03-25T19:46:13.631Z,59.83
2023-03-25T19:48:41.911Z,59.80
2023-03-25T19:51:10.012Z,59.58
2023-03-25T19:53:38.765Z,60.22
2023-03-25T19:56:07.546Z,60.29
2023-03-25T19:58:35.783Z,61.13
2023-03-25T20:01:04.364Z,61.25
2023-03-25T20:03:35.739Z,62.06
2023-03-25T20:06:06.442Z,62.96
2023-03-25T20:08:35.054Z,62.14
2023-03-25T20:11:12.359Z,62.19
2023-03-25T20:13:41.320Z,62.68
2023-03-25T20:16:09.791Z,61.58
2023-03-25T20:18:38.359Z,61.04
2023-03-25T20:21:08.111Z,60.72
2023-03-25T20:23:36.448Z,60.88
2023-03-25T20:26:05.376Z,59.96
2023-03-25T20:28:34.097Z,60.19
2023-03-25T20:31:13.328Z,59.27
2023-03-25T20:33:41.897Z,58.87
2023-03-25T20:36:10.459Z,58.02
2023-03-25T20:38:41.984Z,57.70
2023-03-25T20:41:16.989Z,57.24
2023-03-25T20:43:45.277Z,56.50
2023-03-25T20:46:15.237Z,55.96
2023-03-25T20:48:43.865Z,56.76
2023-03-25T20:51:12.177Z,55.38
2023-03-25T20:53:42.045Z,55.63
2023-03-25T20:56:10.578Z,55.44
2023-03-25T20:58:38.868Z,54.46
2023-03-25T21:01:08.291Z,53.69
2023-03-25T21:03:36.948Z,53.66
2023-03-25T21:06:13.388Z,54.13
2023-03-25T21:08:51.419Z,53.82
2023-03-25T21:11:19.547Z,53.55
2023-03-25T21:13:47.731Z,54.54
2023-03-25T21:16:17.919Z,54.24
2023-03-25T21:18:46.279Z,54.38
2023-03-25T21:21:14.596Z,53.83
2023-03-25T21:23:45.237Z,53.56
2023-03-25T21:26:13.648Z,53.98
2023-03-25T21:28:42.956Z,53.52
2023-03-25T21:31:19.028Z,52.87
2023-03-25T21:33:52.760Z,53.26
2023-03-25T21:36:24.552Z,53.07
2023-03-25T21:38:56.451Z,52.39
2023-03-25T21:41:25.635Z,53.35
2023-03-25T21:43:53.878Z,52.47
2023-03-25T21:46:27.808Z,52.83
2023-03-25T21:48:58.932Z,52.17
2023-03-25T21:51:30.975Z,52.25
2023-03-25T21:54:00.678Z,52.44
2023-03-25T21:56:31.763Z,52.65
2023-03-25T21:59:02.172Z,52.59
2023-03-25T22:01:30.541Z,52.37
2023-03-25T22:04:00.450Z,52.32
2023-03-25T22:06:31.046Z,53.01
2023-03-25T22:09:01.479Z,52.75
2023-03-25T22:11:29.993Z,53.39
2023-03-25T22:13:58.764Z,53.96
2023-03-25T22:16:27.729Z,54.34
2023-03-25T22:18:56.191Z,53.85
2023-03-25T22:21:27.197Z,54.20
2023-03-25T22:23:58.606Z,55.59
2023-03-25T22:26:28.441Z,55.66
2023-03-25T22:28:59.228Z,55.70
2023-03-25T22:31:32.176Z,56.03
2023-03-25T22:34:04.615Z,56.57
2023-03-25T22:36:34.022Z,57.45
2023-03-25T22:39:03.180Z,57.76
2023-03-25T22:41:31.724Z,57.97
2023-03-25T22:44:00.113Z,57.84
2023-03-25T22:46:28.863Z,58.17
2023-03-25T22:48:56.991Z,58.90
2023-03-25T22:51:25.250Z,57.35
2023-03-25T22:53:53.757Z,58.53
2023-03-25T22:56:23.795Z,58.38
2023-03-25T22:58:54.935Z,58.27
2023-03-25T23:01:25.780Z,58.05
2023-03-25T23:03:54.650Z,59.64
2023-03-25T23:06:23.496Z,59.48
2023-03-25T23:08:52.129Z,59.14
2023-03-25T23:11:22.847Z,59.43
2023-03-25T23:13:53.938Z,59.26
2023-03-25T23:16:24.536Z,59.90
2023-03-25T23:18:53.524Z,59.88
2023-03-25T23:21:24.593Z,59.44
2023-03-25T23:23:54.847Z,60.53
2023-03-25T23:26:28.000Z,60.44
2023-03-25T23:29:00.857Z,60.33
2023-03-25T23:31:34.263Z,61.58
2023-03-25T23:34:05.912Z,61.40
2023-03-25T23:36:36.669Z,61.80
2023-03-25T23:39:07.500Z,61.59
2023-03-25T23:41:36.023Z,60.61
2023-03-25T23:44:05.200Z,61.21
2023-03-25T23:46:34.096Z,61.09
2023-03-25T23:49:02.793Z,60.97
2023-03-25T23:51:39.537Z,61.36
2023-03-25T23:54:10.817Z,60.90
2023-03-25T23:56:46.958Z,61.72
2023-03-25T23:59:16.023Z,62.07
